Greenbush, Michigan
Current Conditions -  °F | °C
As of 3:53 AM on Monday 20 Oct 2014 (Local Time) from KOSC Reporting Station
Light Rain Light Rain  
Wind Chill: 42°   Ceiling: 3500
Heat Index: 46°   Visibility: 10mi
Dew Point: 43°   Wind: 8mph
Humidity: 91%   Direction: 210°SSW
Pressure: 29.79"   Gusts: NA
Location:  44.59°N, 83.32°W
Report Text: KOSC 200753Z AUTO 21007KT 10SM -RA OVC035 07/06 A2979 RMK AO2 P0001 T00770063
Loading
Personal Weather Stations






























Interactive Weather Map
Tropical Storm Tracking
New forecast layout! Learn more

10-Day Weather Forecast

Advertisements
Track Severe Weather on mobile